Terminal Aerodrome Forecast
Issued by NWS Jackson, MS

Home | Current Version | Previous Version | Text Only | Print | Product List | Glossary On
Versions: 1 2 3 4 5 6 7 8 9 10 11 12 13
248
FTUS44 KJAN 221120
TAFGLH
TAF
KGLH 221120Z 2212/2312 12007KT 3SM RA BR FEW007 BKN013 OVC019
     FM221600 17008KT 6SM -SHRA VCTS BKN015CB OVC025
     FM222100 24010KT P6SM BKN025
     FM230100 26015KT P6SM OVC050
     FM230600 26013KT P6SM OVC025=

USA.gov is the U.S. government's official web portal to all federal, state and local government web resources and services.